Metar Cercanos

 

LEPA - Palma De Mallorc, Spain
Distance from station: ONO 38km
Actualización: Thu, 30-Jun-2022 11:30pm CEST
Few Clouds
Few Clouds
 Viento del varies
Viento: varies 4 km/h
Temperatura: 24°C
Rocío: 21°C
Humedad: 83%
Barómetro: 1013 hPa
Clouds: Few Clouds
Visibility: 10 km
Cloud details: Few Clouds 610 m
2022/06/30 21:30 LEPA 302130Z VRB02KT 9999 FEW020 24/21 Q1013 NOSIG
LEMH - Mahon/Menorca Is, Spain
Distance from station: ENE 105km
Actualización: Thu, 30-Jun-2022 11:30pm CEST
Parcialmente nuboso
Parcialmente nuboso
 Viento del calm
Viento: Calma
Temperatura: 24°C
Rocío: 21°C
Humedad: 83%
Barómetro: 1014 hPa
Clouds: Parcialmente nuboso
Visibility: 10 km
Cloud details: Parcialmente nuboso 366 m
Parcialmente nuboso 488 m
2022/06/30 21:30 LEMH 302130Z 00000KT 9999 SCT012 SCT016 24/21 Q1014
 
LEIB - Ibiza/Es Codola, Spain
Distance from station: OSO 165km
Actualización: Thu, 30-Jun-2022 11:30pm CEST
Parcialmente nuboso
Parcialmente nuboso
 Viento del NO
Viento: NO 7 km/h
Temperatura: 24°C
Rocío: 20°C
Humedad: 78%
Barómetro: 1013 hPa
Clouds: Parcialmente nuboso
Visibility: 10 km
Cloud details: Few Clouds 610 m
Parcialmente nuboso 762 m
2022/06/30 21:30 LEIB 302130Z 32004KT 270V360 9999 FEW020 SCT025 24/20 Q1013 NOSIG
LEBL - Barcelona Airpor, Spain
Distance from station: NNO 225km
Actualización: Thu, 30-Jun-2022 11:30pm CEST
Muy nuboso
Muy nuboso
 Viento del E
Viento: E 22 km/h
Temperatura: 23°C
Rocío: 17°C
Humedad: 69%
Barómetro: 1015 hPa
Clouds: Muy nuboso
Visibility: 10 km
Cloud details: Few Clouds 549 m
Muy nuboso 640 m
Muy nuboso 1158 m
2022/06/30 21:30 LEBL 302130Z 08012KT 9999 FEW018 BKN021 BKN038 23/17 Q1015 NOSIG
 
LEVC - Valencia (civ/Mi, Spain
Distance from station: NO 188km
Actualización: Thu, 30-Jun-2022 11:30pm CEST
Few Clouds
Few Clouds
 Viento del NE
Viento: NE 9 km/h
Temperatura: 24°C
Rocío: 19°C
Humedad: 74%
Barómetro: 1014 hPa
Clouds: Few Clouds
Visibility: 10 km
Cloud details: Few Clouds 762 m
2022/06/30 21:30 LEVC 302130Z 05005KT 340V130 9999 FEW025 24/19 Q1014 NOSIG
LEGE - Gerona/Costa Bra, Spain
Distance from station: N 276km
Actualización: Thu, 30-Jun-2022 11:30pm CEST
Despejado
Despejado
 Viento del NNE
Viento: NNE 9 km/h
Temperatura: 18°C
Rocío: 12°C
Humedad: 68%
Barómetro: 1015 hPa
Resumen: Despejado
Visibility: greater than 10 km
2022/06/30 21:30 LEGE 302130Z 03005KT 360V060 CAVOK 18/12 Q1015
 
LEAL - Alicante/El Alte, Spain
Distance from station: OSO 344km
Actualización: Thu, 30-Jun-2022 11:30pm CEST
Despejado
Despejado
 Viento del calm
Viento: Calma
Temperatura: 22°C
Rocío: 20°C
Humedad: 88%
Barómetro: 1013 hPa
Resumen: Despejado
Visibility: greater than 10 km
2022/06/30 21:30 LEAL 302130Z 00000KT CAVOK 22/20 Q1013 NOSIG
LEAM - Almeria Airport, Spain
Distance from station: SSO 56km
Actualización: Thu, 30-Jun-2022 11:30pm CEST
Patches of fog, Despejado
Patches of fog, Despejado
 Viento del calm
Viento: Calma
Temperatura: 21°C
Rocío: 20°C
Humedad: 94%
Barómetro: 1012 hPa
Resumen: Patches of Fog
Clouds: Despejado
Visibility: 10 km
2022/06/30 21:30 LEAM 302130Z AUTO 00000KT 9999 0200NE BCFG NCD 21/20 Q1012
 
LEZG - Zaragoza (mil/Ci, Spain
Distance from station: NO 431km
Actualización: Thu, 30-Jun-2022 11:30pm CEST
Despejado
Despejado
 Viento del ONO
Viento: ONO 35 km/h
Temperatura: 17°C
Rocío: 9°C
Humedad: 59%
Barómetro: 1018 hPa
Resumen: Despejado
Visibility: greater than 10 km
2022/06/30 21:30 LEZG 302130Z 30019KT CAVOK 17/09 Q1018
LEMD - Madrid/Barajas, Spain
Distance from station: ONO 234km
Actualización: Thu, 30-Jun-2022 11:30pm CEST
Despejado
Despejado
 Viento del N
Viento: N 9 km/h
Temperatura: 23°C
Rocío: 4°C
Humedad: 29%
Barómetro: 1015 hPa
Resumen: Despejado
Visibility: greater than 10 km
2022/06/30 21:30 LEMD 302130Z 36005KT 330V030 CAVOK 23/04 Q1015 NOSIG
 
LEGR - Granada Airport, Spain
Distance from station: OSO 62km
Actualización: Thu, 30-Jun-2022 11:30pm CEST
Despejado
Despejado
 Viento del OSO
Viento: OSO 7 km/h
Temperatura: 24°C
Rocío: 6°C
Humedad: 31%
Barómetro: 1015 hPa
Resumen: Despejado
Visibility: greater than 10 km
2022/06/30 21:30 LEGR 302130Z AUTO 24004KT CAVOK 24/06 Q1015
LEMG - Malaga (civ/Mil), Spain
Distance from station: OSO 227km
Actualización: Thu, 30-Jun-2022 11:30pm CEST
Despejado
Despejado
 Viento del E
Viento: E 7 km/h
Temperatura: 21°C
Rocío: 16°C
Humedad: 73%
Barómetro: 1011 hPa
Resumen: Despejado
Visibility: greater than 10 km
2022/06/30 21:30 LEMG 302130Z 09004KT 050V140 CAVOK 21/16 Q1011 NOSIG
 
LEZL - Sevilla (civ/Mil, Spain
Distance from station: S 318km
Actualización: Thu, 30-Jun-2022 11:30pm CEST
Despejado
Despejado
 Viento del SSO
Viento: SSO 13 km/h
Temperatura: 23°C
Rocío: 11°C
Humedad: 47%
Barómetro: 1013 hPa
Resumen: Despejado
Visibility: greater than 10 km
2022/06/30 21:30 LEZL 302130Z 20007KT 160V240 CAVOK 23/11 Q1013 NOSIG
LEVT - Vitoria, Spain
Distance from station: NO 226km
Actualización: Thu, 30-Jun-2022 11:30pm CEST
Few Clouds
Few Clouds
 Viento del NE
Viento: NE 7 km/h
Temperatura: 9°C
Sensación frio: 8°C
Rocío: 7°C
Humedad: 87%
Barómetro: 1022 hPa
Clouds: Few Clouds
Visibility: 10 km
Cloud details: Few Clouds 610 m
2022/06/30 21:30 LEVT 302130Z 04004KT 9999 FEW020 09/07 Q1022
 
LEBB - Bilbao/Sondica, Spain
Distance from station: NNO 235km
Actualización: Thu, 30-Jun-2022 11:30pm CEST
Few Clouds
Few Clouds
 Viento del ENE
Viento: ENE 4 km/h
Temperatura: 14°C
Rocío: 13°C
Humedad: 94%
Barómetro: 1021 hPa
Clouds: Few Clouds
Visibility: 10 km
Cloud details: Few Clouds 1067 m
2022/06/30 21:30 LEBB 302130Z 06002KT 9999 FEW035 14/13 Q1021 NOSIG
LESO - San Sebastian/Fu, Spain
Distance from station: N 231km
Actualización: Thu, 30-Jun-2022 11:30pm CEST
Despejado
Despejado
 Viento del SSO
Viento: SSO 7 km/h
Temperatura: 14°C
Rocío: 13°C
Humedad: 94%
Barómetro: 1021 hPa
Resumen: Despejado
Visibility: greater than 10 km
2022/06/30 21:30 LESO 302130Z AUTO 20004KT 160V230 CAVOK 14/13 Q1021
 
LEVD - Valladolid(Mil/C, Spain
Distance from station: ONO 239km
Actualización: Thu, 30-Jun-2022 11:30pm CEST
Despejado
Despejado
 Viento del ENE
Viento: ENE 20 km/h
Temperatura: 14°C
Rocío: 6°C
Humedad: 59%
Barómetro: 1018 hPa
Resumen: Despejado
Visibility: greater than 10 km
2022/06/30 21:30 LEVD 302130Z AUTO 07011KT CAVOK 14/06 Q1018
LESA - Salamanca (civ/M, Spain
Distance from station: ONO 349km
Actualización: Thu, 30-Jun-2022 11:30pm CEST
Despejado
Despejado
 Viento del NO
Viento: NO 9 km/h
Temperatura: 14°C
Rocío: 6°C
Humedad: 59%
Barómetro: 1018 hPa
Clouds: Despejado
Visibility: 8 km
2022/06/30 21:30 LESA 302130Z AUTO 31005KT 8000 NCD 14/06 Q1018
 
LEXJ - Santander/Paraya, Spain
Distance from station: NNO 247km
Actualización: Thu, 30-Jun-2022 11:30pm CEST
Few Clouds
Few Clouds
 Viento del SO
Viento: SO 7 km/h
Temperatura: 15°C
Rocío: 12°C
Humedad: 82%
Barómetro: 1021 hPa
Clouds: Few Clouds
Visibility: 10 km
Cloud details: Few Clouds 914 m
2022/06/30 21:30 LEXJ 302130Z 22004KT 9999 FEW030 15/12 Q1021
LEAS - Asturias/Aviles, Spain
Distance from station: NO 214km
Actualización: Thu, 30-Jun-2022 11:30pm CEST
Few Clouds
Few Clouds
 Viento del calm
Viento: Calma
Temperatura: 14°C
Rocío: 11°C
Humedad: 82%
Barómetro: 1021 hPa
Clouds: Few Clouds
Visibility: 10 km
Cloud details: Few Clouds 1890 m
2022/06/30 21:30 LEAS 302130Z 00000KT 9999 FEW062 14/11 Q1021 NOSIG
 
LECO - La Coruna/Alvedr, Spain
Distance from station: ONO 222km
Actualización: Thu, 30-Jun-2022 11:30pm CEST
Few Clouds
Few Clouds
 Viento del varies
Viento: varies 2 km/h
Temperatura: 15°C
Rocío: 12°C
Humedad: 82%
Barómetro: 1020 hPa
Clouds: Few Clouds
Visibility: 10 km
Cloud details: Few Clouds 975 m
2022/06/30 21:30 LECO 302130Z VRB01KT 9999 FEW032 15/12 Q1020 NOSIG
LEVX - Vigo/Peinador, Spain
Distance from station: O 214km
Actualización: Thu, 30-Jun-2022 11:30pm CEST
Despejado
Despejado
 Viento del O
Viento: O 9 km/h
Temperatura: 14°C
Rocío: 12°C
Humedad: 88%
Barómetro: 1020 hPa
Resumen: Despejado
Visibility: greater than 10 km
2022/06/30 21:30 LEVX 302130Z 28005KT 260V320 CAVOK 14/12 Q1020 NOSIG